createdAt,value
2016-11-06T00:00:06.765Z,0
2016-11-06T00:01:06.763Z,0
2016-11-06T00:02:06.740Z,0
2016-11-06T00:03:06.714Z,0
2016-11-06T00:04:06.699Z,0
2016-11-06T00:05:06.681Z,0
2016-11-06T00:06:06.671Z,0
2016-11-06T00:07:06.647Z,0
2016-11-06T00:08:06.636Z,0
2016-11-06T00:09:07.154Z,0
2016-11-06T00:10:07.266Z,0
2016-11-06T00:11:06.574Z,0
2016-11-06T00:12:06.562Z,0
2016-11-06T00:13:06.544Z,0
2016-11-06T00:14:06.871Z,0
2016-11-06T00:15:06.510Z,0
2016-11-06T00:16:06.494Z,0
2016-11-06T00:17:06.469Z,0
2016-11-06T00:18:06.462Z,0
2016-11-06T00:19:06.751Z,0
2016-11-06T00:20:06.438Z,0
2016-11-06T00:21:06.402Z,0
2016-11-06T00:22:07.011Z,0
2016-11-06T00:23:06.731Z,0
2016-11-06T00:24:06.348Z,0
2016-11-06T00:25:06.330Z,0
2016-11-06T00:26:06.315Z,0
2016-11-06T00:27:06.611Z,0
2016-11-06T00:28:06.919Z,0
2016-11-06T00:29:06.575Z,0
2016-11-06T00:30:06.246Z,0
2016-11-06T00:31:06.536Z,0
2016-11-06T00:32:06.524Z,0
2016-11-06T00:33:06.219Z,0
2016-11-06T00:34:06.205Z,0
2016-11-06T00:35:06.170Z,0
2016-11-06T00:36:06.455Z,0
2016-11-06T00:37:06.751Z,0
2016-11-06T00:38:06.107Z,0
2016-11-06T00:39:06.085Z,0
2016-11-06T00:40:06.070Z,0
2016-11-06T00:41:06.051Z,0
2016-11-06T00:42:06.347Z,0
2016-11-06T00:43:06.016Z,0
2016-11-06T00:44:05.999Z,0
2016-11-06T00:45:06.297Z,0
2016-11-06T00:46:06.280Z,0
2016-11-06T00:47:06.284Z,0
2016-11-06T00:48:06.240Z,0
2016-11-06T00:49:06.535Z,0
2016-11-06T00:50:05.898Z,0
2016-11-06T00:51:05.880Z,0
2016-11-06T00:52:06.198Z,0
2016-11-06T00:53:05.839Z,0
2016-11-06T00:54:05.828Z,0
2016-11-06T00:55:06.116Z,0
2016-11-06T00:56:06.100Z,0
2016-11-06T00:57:06.084Z,0
2016-11-06T00:58:05.747Z,0
2016-11-06T00:59:05.731Z,0
2016-11-06T01:00:06.339Z,0
2016-11-06T01:01:05.690Z,0
2016-11-06T01:02:05.984Z,0
2016-11-06T01:03:05.662Z,0
2016-11-06T01:04:05.949Z,0
2016-11-06T01:05:05.658Z,0
2016-11-06T01:06:05.921Z,0
2016-11-06T01:07:05.619Z,0
2016-11-06T01:08:05.878Z,0
2016-11-06T01:09:05.589Z,0
2016-11-06T01:10:05.528Z,0
2016-11-06T01:11:05.856Z,0
2016-11-06T01:12:05.493Z,0
2016-11-06T01:13:05.474Z,0
2016-11-06T01:14:05.773Z,0
2016-11-06T01:15:05.753Z,0
2016-11-06T01:16:05.422Z,0
2016-11-06T01:17:05.721Z,0
2016-11-06T01:18:05.695Z,0
2016-11-06T01:19:05.708Z,0
2016-11-06T01:20:05.979Z,0
2016-11-06T01:21:05.367Z,0
2016-11-06T01:22:05.624Z,0
2016-11-06T01:23:05.606Z,0
2016-11-06T01:24:05.274Z,0
2016-11-06T01:25:05.933Z,0
2016-11-06T01:26:05.243Z,0
2016-11-06T01:27:05.226Z,0
2016-11-06T01:28:05.574Z,0
2016-11-06T01:29:05.497Z,0
2016-11-06T01:30:05.485Z,0
2016-11-06T01:31:05.149Z,0
2016-11-06T01:32:05.126Z,0
2016-11-06T01:33:05.119Z,0
2016-11-06T01:34:05.411Z,0
2016-11-06T01:35:05.697Z,0
2016-11-06T01:36:05.089Z,0
2016-11-06T01:37:05.039Z,0
2016-11-06T01:38:05.019Z,0
2016-11-06T01:39:05.034Z,0
2016-11-06T01:40:04.981Z,0
2016-11-06T01:41:05.282Z,0
2016-11-06T01:42:04.958Z,0
2016-11-06T01:43:04.929Z,0
2016-11-06T01:44:04.915Z,0
2016-11-06T01:45:05.204Z,0
2016-11-06T01:46:04.886Z,0
2016-11-06T01:47:04.857Z,0
2016-11-06T01:48:04.841Z,0
2016-11-06T01:49:04.823Z,0
2016-11-06T01:50:04.834Z,0
2016-11-06T01:51:05.097Z,0
2016-11-06T01:52:05.082Z,0
2016-11-06T01:53:05.059Z,0
2016-11-06T01:54:04.764Z,0
2016-11-06T01:55:04.722Z,0
2016-11-06T01:56:04.695Z,0
2016-11-06T01:57:04.724Z,0
2016-11-06T01:58:04.672Z,0
2016-11-06T01:59:04.648Z,0
2016-11-06T02:00:04.625Z,0
2016-11-06T02:01:04.925Z,0
2016-11-06T02:02:04.587Z,0
2016-11-06T02:03:04.605Z,0
2016-11-06T02:04:04.584Z,0
2016-11-06T02:05:04.538Z,0
2016-11-06T02:06:04.513Z,0
2016-11-06T02:07:05.120Z,0
2016-11-06T02:08:04.479Z,0
2016-11-06T02:09:05.289Z,0
2016-11-06T02:10:04.451Z,0
2016-11-06T02:11:04.936Z,0
2016-11-06T02:12:04.441Z,0
2016-11-06T02:13:04.390Z,0
2016-11-06T02:14:04.419Z,0
2016-11-06T02:15:04.678Z,0
2016-11-06T02:16:04.326Z,0
2016-11-06T02:17:04.323Z,0
2016-11-06T02:18:04.604Z,0
2016-11-06T02:19:04.582Z,0
2016-11-06T02:20:04.262Z,0
2016-11-06T02:21:04.244Z,0
2016-11-06T02:22:04.538Z,0
2016-11-06T02:23:04.199Z,0
2016-11-06T02:24:04.186Z,0
2016-11-06T02:25:04.479Z,0
2016-11-06T02:26:04.771Z,0
2016-11-06T02:27:04.122Z,0
2016-11-06T02:28:04.110Z,0
2016-11-06T02:29:04.414Z,0
2016-11-06T02:30:04.074Z,0
2016-11-06T02:31:04.055Z,0
2016-11-06T02:32:04.658Z,0
2016-11-06T02:33:04.019Z,0
2016-11-06T02:34:03.999Z,0
2016-11-06T02:35:04.019Z,0
2016-11-06T02:36:03.964Z,0
2016-11-06T02:37:03.943Z,0
2016-11-06T02:38:03.932Z,0
2016-11-06T02:39:03.909Z,0
2016-11-06T02:40:03.893Z,0
2016-11-06T02:41:03.876Z,0
2016-11-06T02:42:04.166Z,0
2016-11-06T02:43:04.147Z,0
2016-11-06T02:44:03.815Z,0
2016-11-06T02:45:03.795Z,0
2016-11-06T02:46:03.783Z,0
2016-11-06T02:47:03.765Z,0
2016-11-06T02:48:03.759Z,0
2016-11-06T02:49:03.719Z,0
2016-11-06T02:50:03.704Z,0
2016-11-06T02:51:03.686Z,0
2016-11-06T02:52:03.666Z,0
2016-11-06T02:53:03.681Z,0
2016-11-06T02:54:03.629Z,0
2016-11-06T02:55:03.612Z,0
2016-11-06T02:56:03.587Z,0
2016-11-06T02:57:03.581Z,0
2016-11-06T02:58:03.553Z,0
2016-11-06T02:59:04.479Z,0
2016-11-06T03:00:03.824Z,0
2016-11-06T03:01:03.858Z,0
2016-11-06T03:02:03.790Z,0
2016-11-06T03:03:04.090Z,0
2016-11-06T03:04:03.444Z,0
2016-11-06T03:05:03.477Z,0
2016-11-06T03:06:03.405Z,0
2016-11-06T03:07:03.392Z,0
2016-11-06T03:08:03.683Z,0
2016-11-06T03:09:03.349Z,0
2016-11-06T03:10:03.656Z,0
2016-11-06T03:11:03.624Z,0
2016-11-06T03:12:03.615Z,0
2016-11-06T03:13:03.591Z,0
2016-11-06T03:14:03.297Z,0
2016-11-06T03:15:03.556Z,0
2016-11-06T03:16:03.222Z,0
2016-11-06T03:17:03.227Z,0
2016-11-06T03:18:03.181Z,0
2016-11-06T03:19:03.158Z,0
2016-11-06T03:20:03.472Z,0
2016-11-06T03:21:03.449Z,0
2016-11-06T03:22:03.765Z,0
2016-11-06T03:23:03.443Z,0
2016-11-06T03:24:04.030Z,0
2016-11-06T03:25:03.097Z,0
2016-11-06T03:26:03.349Z,0
2016-11-06T03:27:03.010Z,0
2016-11-06T03:28:03.628Z,0
2016-11-06T03:29:03.285Z,0
2016-11-06T03:30:03.307Z,0
2016-11-06T03:31:02.943Z,0
2016-11-06T03:32:03.235Z,0
2016-11-06T03:33:03.215Z,0
2016-11-06T03:34:02.889Z,0
2016-11-06T03:35:03.175Z,0
2016-11-06T03:36:02.846Z,0
2016-11-06T03:37:03.175Z,0
2016-11-06T03:38:03.129Z,0
2016-11-06T03:39:03.103Z,0
2016-11-06T03:40:02.771Z,0
2016-11-06T03:41:02.747Z,0
2016-11-06T03:42:02.728Z,0
2016-11-06T03:43:03.028Z,0
2016-11-06T03:44:02.703Z,0
2016-11-06T03:45:02.988Z,0
2016-11-06T03:46:02.969Z,0
2016-11-06T03:47:03.261Z,0
2016-11-06T03:48:02.965Z,0
2016-11-06T03:49:02.594Z,0
2016-11-06T03:50:02.616Z,0
2016-11-06T03:51:02.561Z,0
2016-11-06T03:52:02.543Z,0
2016-11-06T03:53:02.837Z,0
2016-11-06T03:54:03.124Z,0
2016-11-06T03:55:02.534Z,0
2016-11-06T03:56:02.509Z,0
2016-11-06T03:57:02.768Z,0
2016-11-06T03:58:02.436Z,0
2016-11-06T03:59:02.725Z,0
2016-11-06T04:00:02.393Z,0
2016-11-06T04:01:02.684Z,0
2016-11-06T04:02:02.372Z,0
2016-11-06T04:03:02.651Z,0
2016-11-06T04:04:02.621Z,0
2016-11-06T04:05:02.324Z,0
2016-11-06T04:06:02.278Z,0
2016-11-06T04:07:02.879Z,0
2016-11-06T04:08:02.238Z,0
2016-11-06T04:09:03.136Z,0
2016-11-06T04:10:02.194Z,0
2016-11-06T04:11:02.180Z,0
2016-11-06T04:12:02.166Z,0
2016-11-06T04:13:02.534Z,0
2016-11-06T04:14:02.752Z,0
2016-11-06T04:15:02.105Z,0
2016-11-06T04:16:02.085Z,0
2016-11-06T04:17:02.101Z,0
2016-11-06T04:18:02.044Z,0
2016-11-06T04:19:02.030Z,0
2016-11-06T04:20:02.321Z,0
2016-11-06T04:21:01.987Z,0
2016-11-06T04:22:01.964Z,0
2016-11-06T04:23:01.955Z,0
2016-11-06T04:24:01.931Z,0
2016-11-06T04:25:01.911Z,0
2016-11-06T04:26:02.205Z,0
2016-11-06T04:27:01.871Z,0
2016-11-06T04:28:01.855Z,0
2016-11-06T04:29:01.838Z,0
2016-11-06T04:30:01.815Z,0
2016-11-06T04:31:01.799Z,0
2016-11-06T04:32:01.774Z,0
2016-11-06T04:33:01.758Z,0
2016-11-06T04:34:02.051Z,0
2016-11-06T04:35:01.721Z,0
2016-11-06T04:36:01.773Z,0
2016-11-06T04:37:01.995Z,0
2016-11-06T04:38:01.665Z,0
2016-11-06T04:39:01.698Z,0
2016-11-06T04:40:01.939Z,0
2016-11-06T04:41:01.915Z,0
2016-11-06T04:42:01.616Z,0
2016-11-06T04:43:01.572Z,0
2016-11-06T04:44:01.551Z,0
2016-11-06T04:45:01.532Z,0
2016-11-06T04:46:01.513Z,0
2016-11-06T04:47:01.803Z,0
2016-11-06T04:48:01.516Z,0
2016-11-06T04:49:01.468Z,0
2016-11-06T04:50:01.801Z,0
2016-11-06T04:51:01.426Z,0
2016-11-06T04:52:01.405Z,0
2016-11-06T04:53:01.378Z,0
2016-11-06T04:54:01.359Z,0
2016-11-06T04:55:01.341Z,0
2016-11-06T04:56:01.318Z,0
2016-11-06T04:57:01.304Z,0
2016-11-06T04:58:01.283Z,0
2016-11-06T04:59:01.265Z,0
2016-11-06T05:00:01.243Z,0
2016-11-06T05:01:01.536Z,0
2016-11-06T05:02:01.210Z,0
2016-11-06T05:03:01.186Z,0
2016-11-06T05:04:01.478Z,0
2016-11-06T05:05:01.182Z,0
2016-11-06T05:06:01.127Z,0
2016-11-06T05:07:01.115Z,0
2016-11-06T05:08:01.088Z,0
2016-11-06T05:09:01.071Z,0
2016-11-06T05:10:01.370Z,0
2016-11-06T05:11:01.351Z,0
2016-11-06T05:12:01.011Z,0
2016-11-06T05:13:00.997Z,0
2016-11-06T05:14:00.970Z,0
2016-11-06T05:15:00.952Z,0
2016-11-06T05:16:00.941Z,0
2016-11-06T05:17:00.917Z,0
2016-11-06T05:18:00.894Z,0
2016-11-06T05:19:00.878Z,0
2016-11-06T05:20:00.902Z,0
2016-11-06T05:21:01.159Z,0
2016-11-06T05:22:01.131Z,0
2016-11-06T05:23:01.113Z,0
2016-11-06T05:24:01.113Z,0
2016-11-06T05:25:00.760Z,0
2016-11-06T05:26:00.773Z,0
2016-11-06T05:27:00.724Z,0
2016-11-06T05:28:00.711Z,0
2016-11-06T05:29:00.700Z,0
2016-11-06T05:30:00.677Z,0
2016-11-06T05:31:00.648Z,0
2016-11-06T05:32:00.951Z,0
2016-11-06T05:33:00.921Z,0
2016-11-06T05:34:00.589Z,0
2016-11-06T05:35:00.578Z,0
2016-11-06T05:36:00.563Z,0
2016-11-06T05:37:00.848Z,0
2016-11-06T05:38:00.824Z,0
2016-11-06T05:39:00.494Z,0
2016-11-06T05:40:00.472Z,0
2016-11-06T05:41:00.465Z,0
2016-11-06T05:42:00.443Z,0
2016-11-06T05:43:00.740Z,0
2016-11-06T05:44:00.402Z,0
2016-11-06T05:45:00.379Z,0
2016-11-06T05:46:00.424Z,0
2016-11-06T05:47:00.655Z,0
2016-11-06T05:48:00.333Z,0
2016-11-06T05:49:00.309Z,0
2016-11-06T05:50:00.913Z,0
2016-11-06T05:51:00.273Z,0
2016-11-06T05:52:00.878Z,0
2016-11-06T05:53:00.543Z,0
2016-11-06T05:54:00.209Z,0
2016-11-06T05:55:00.496Z,0
2016-11-06T05:56:00.217Z,0
2016-11-06T05:57:00.143Z,0
2016-11-06T05:58:00.445Z,0
2016-11-06T05:59:00.157Z,0
2016-11-06T06:00:00.088Z,0
2016-11-06T06:01:00.391Z,0
2016-11-06T06:02:00.367Z,0
2016-11-06T06:03:00.041Z,0
2016-11-06T06:04:00.018Z,0
2016-11-06T06:04:59.995Z,0
2016-11-06T06:06:00.294Z,0
2016-11-06T06:06:59.966Z,0
2016-11-06T06:07:59.944Z,0
2016-11-06T06:08:59.920Z,0
2016-11-06T06:10:00.105Z,0
2016-11-06T06:10:59.916Z,0
2016-11-06T06:11:59.976Z,0
2016-11-06T06:13:00.473Z,0
2016-11-06T06:14:00.133Z,0
2016-11-06T06:15:00.113Z,0
2016-11-06T06:16:00.152Z,0
2016-11-06T06:16:59.769Z,0
2016-11-06T06:17:59.954Z,0
2016-11-06T06:18:59.730Z,0
2016-11-06T06:19:59.715Z,0
2016-11-06T06:20:59.698Z,0
2016-11-06T06:21:59.980Z,0
2016-11-06T06:22:59.649Z,0
2016-11-06T06:23:59.632Z,0
2016-11-06T06:24:59.929Z,0
2016-11-06T06:25:59.907Z,0
2016-11-06T06:27:00.204Z,0
2016-11-06T06:27:59.604Z,0
2016-11-06T06:28:59.850Z,0
2016-11-06T06:29:59.833Z,0
2016-11-06T06:30:59.503Z,0
2016-11-06T06:31:59.795Z,0
2016-11-06T06:32:59.461Z,0
2016-11-06T06:33:59.439Z,0
2016-11-06T06:34:59.422Z,0
2016-11-06T06:35:59.408Z,0
2016-11-06T06:36:59.697Z,0
2016-11-06T06:37:59.363Z,0
2016-11-06T06:38:59.355Z,0
2016-11-06T06:39:59.332Z,0
2016-11-06T06:40:59.316Z,5
2016-11-06T06:41:59.293Z,5
2016-11-06T06:42:59.587Z,5
2016-11-06T06:43:59.605Z,5
2016-11-06T06:44:59.553Z,5
2016-11-06T06:45:59.534Z,10
2016-11-06T06:46:59.197Z,10
2016-11-06T06:47:59.188Z,10
2016-11-06T06:48:59.158Z,10
2016-11-06T06:49:59.171Z,10
2016-11-06T06:50:59.128Z,15
2016-11-06T06:51:59.423Z,15
2016-11-06T06:52:59.084Z,20
2016-11-06T06:53:59.411Z,20
2016-11-06T06:54:59.044Z,25
2016-11-06T06:55:59.032Z,25
2016-11-06T06:56:59.010Z,25
2016-11-06T06:57:59.014Z,25
2016-11-06T06:58:59.300Z,25
2016-11-06T06:59:59.281Z,25
2016-11-06T07:00:58.942Z,20
2016-11-06T07:01:58.916Z,25
2016-11-06T07:02:59.218Z,25
2016-11-06T07:03:58.885Z,25
2016-11-06T07:04:59.172Z,25
2016-11-06T07:05:58.846Z,25
2016-11-06T07:06:58.868Z,25
2016-11-06T07:07:59.121Z,20
2016-11-06T07:08:59.140Z,20
2016-11-06T07:09:58.763Z,20
2016-11-06T07:10:58.750Z,20
2016-11-06T07:11:59.057Z,20
2016-11-06T07:12:58.715Z,25
2016-11-06T07:13:58.699Z,25
2016-11-06T07:14:58.994Z,25
2016-11-06T07:15:58.658Z,30
2016-11-06T07:16:58.672Z,35
2016-11-06T07:17:58.973Z,35
2016-11-06T07:18:59.135Z,35
2016-11-06T07:19:59.218Z,40
2016-11-06T07:20:58.591Z,35
2016-11-06T07:21:58.864Z,35
2016-11-06T07:22:58.527Z,35
2016-11-06T07:23:58.564Z,35
2016-11-06T07:24:58.491Z,35
2016-11-06T07:25:58.474Z,35
2016-11-06T07:26:58.771Z,35
2016-11-06T07:27:58.438Z,40
2016-11-06T07:28:58.736Z,40
2016-11-06T07:29:58.442Z,45
2016-11-06T07:30:58.659Z,40
2016-11-06T07:31:58.385Z,35
2016-11-06T07:32:58.668Z,35
2016-11-06T07:33:58.667Z,35
2016-11-06T07:34:58.965Z,35
2016-11-06T07:35:58.326Z,40
2016-11-06T07:36:58.917Z,45
2016-11-06T07:37:58.266Z,50
2016-11-06T07:38:58.594Z,50
2016-11-06T07:39:58.272Z,50
2016-11-06T07:40:58.196Z,60
2016-11-06T07:41:58.215Z,70
2016-11-06T07:42:58.810Z,80
2016-11-06T07:43:58.157Z,70
2016-11-06T07:44:58.124Z,65
2016-11-06T07:45:58.413Z,60
2016-11-06T07:46:58.404Z,60
2016-11-06T07:47:58.083Z,55
2016-11-06T07:48:58.367Z,55
2016-11-06T07:49:58.037Z,55
2016-11-06T07:50:58.013Z,55
2016-11-06T07:51:57.997Z,60
2016-11-06T07:52:57.972Z,65
2016-11-06T07:53:58.283Z,65
2016-11-06T07:54:57.941Z,70
2016-11-06T07:55:57.926Z,75
2016-11-06T07:56:57.911Z,80
2016-11-06T07:57:58.195Z,75
2016-11-06T07:58:58.192Z,70
2016-11-06T07:59:57.849Z,70
2016-11-06T08:00:57.876Z,70
2016-11-06T08:01:58.132Z,65
2016-11-06T08:02:57.790Z,75
2016-11-06T08:03:57.777Z,85
2016-11-06T08:04:58.073Z,90
2016-11-06T08:05:57.746Z,95
2016-11-06T08:06:58.031Z,80
2016-11-06T08:07:58.031Z,80
2016-11-06T08:08:58.053Z,60
2016-11-06T08:09:57.882Z,60
2016-11-06T08:10:57.959Z,65
2016-11-06T08:11:58.258Z,80
2016-11-06T08:12:57.938Z,75
2016-11-06T08:13:57.595Z,70
2016-11-06T08:14:57.925Z,65
2016-11-06T08:15:57.556Z,55
2016-11-06T08:16:57.852Z,65
2016-11-06T08:17:57.837Z,75
2016-11-06T08:18:57.850Z,90
2016-11-06T08:19:57.852Z,80
2016-11-06T08:20:57.477Z,75
2016-11-06T08:21:57.763Z,65
2016-11-06T08:22:57.437Z,75
2016-11-06T08:23:57.724Z,90
2016-11-06T08:24:57.711Z,95
2016-11-06T08:25:57.733Z,130
2016-11-06T08:26:57.368Z,120
2016-11-06T08:27:57.341Z,120
2016-11-06T08:28:57.327Z,125
2016-11-06T08:29:57.362Z,105
2016-11-06T08:30:57.341Z,110
2016-11-06T08:31:57.587Z,105
2016-11-06T08:32:57.256Z,120
2016-11-06T08:33:57.245Z,125
2016-11-06T08:34:57.275Z,110
2016-11-06T08:35:57.201Z,105
2016-11-06T08:36:57.497Z,105
2016-11-06T08:37:57.482Z,110
2016-11-06T08:38:57.198Z,115
2016-11-06T08:39:57.219Z,125
2016-11-06T08:40:57.128Z,130
2016-11-06T08:41:57.155Z,135
2016-11-06T08:42:57.156Z,125
2016-11-06T08:43:57.396Z,120
2016-11-06T08:44:57.058Z,125
2016-11-06T08:45:57.069Z,135
2016-11-06T08:46:57.021Z,140
2016-11-06T08:47:56.996Z,145
2016-11-06T08:48:57.304Z,150
2016-11-06T08:49:57.282Z,160
2016-11-06T08:50:57.261Z,170
2016-11-06T08:51:56.924Z,180
2016-11-06T08:52:56.910Z,175
2016-11-06T08:53:56.895Z,175
2016-11-06T08:54:56.916Z,180
2016-11-06T08:55:56.882Z,185
2016-11-06T08:56:57.174Z,195
2016-11-06T08:57:56.836Z,190
2016-11-06T08:58:57.125Z,190
2016-11-06T08:59:57.114Z,195
2016-11-06T09:00:56.782Z,205
2016-11-06T09:01:57.135Z,175
2016-11-06T09:02:57.371Z,185
2016-11-06T09:03:56.770Z,200
2016-11-06T09:04:57.342Z,205
2016-11-06T09:05:56.737Z,200
2016-11-06T09:06:56.687Z,195
2016-11-06T09:07:56.976Z,205
2016-11-06T09:08:56.645Z,195
2016-11-06T09:09:56.950Z,180
2016-11-06T09:10:56.613Z,195
2016-11-06T09:11:56.595Z,180
2016-11-06T09:12:57.243Z,185
2016-11-06T09:13:56.643Z,175
2016-11-06T09:14:56.607Z,230
2016-11-06T09:15:56.888Z,180
2016-11-06T09:16:56.521Z,200
2016-11-06T09:17:56.499Z,190
2016-11-06T09:18:56.802Z,160
2016-11-06T09:19:56.474Z,175
2016-11-06T09:20:56.463Z,180
2016-11-06T09:21:56.435Z,165
2016-11-06T09:22:56.437Z,145
2016-11-06T09:23:56.723Z,130
2016-11-06T09:24:56.401Z,115
2016-11-06T09:25:56.432Z,105
2016-11-06T09:26:56.373Z,100
2016-11-06T09:27:56.343Z,110
2016-11-06T09:28:56.359Z,110
2016-11-06T09:29:56.685Z,105
2016-11-06T09:30:56.661Z,110
2016-11-06T09:31:56.286Z,105
2016-11-06T09:32:56.266Z,95
2016-11-06T09:33:56.263Z,100
2016-11-06T09:34:56.248Z,100
2016-11-06T09:35:56.523Z,100
2016-11-06T09:36:56.196Z,85
2016-11-06T09:37:56.505Z,80
2016-11-06T09:38:56.496Z,95
2016-11-06T09:39:56.459Z,100
2016-11-06T09:40:56.769Z,105
2016-11-06T09:41:56.829Z,115
2016-11-06T09:42:56.106Z,105
2016-11-06T09:43:56.403Z,120
2016-11-06T09:44:56.409Z,120
2016-11-06T09:45:56.371Z,110
2016-11-06T09:46:56.025Z,100
2016-11-06T09:47:56.329Z,105
2016-11-06T09:48:56.630Z,110
2016-11-06T09:49:56.297Z,110
2016-11-06T09:50:55.964Z,115
2016-11-06T09:51:56.893Z,115
2016-11-06T09:52:55.950Z,120
2016-11-06T09:53:56.232Z,130
2016-11-06T09:54:55.904Z,165
2016-11-06T09:55:55.885Z,175
2016-11-06T09:56:56.185Z,175
2016-11-06T09:57:55.850Z,165
2016-11-06T09:58:56.147Z,175
2016-11-06T09:59:56.131Z,195
2016-11-06T10:00:55.802Z,180
2016-11-06T10:01:56.114Z,160
2016-11-06T10:02:56.120Z,185
2016-11-06T10:03:55.869Z,195
2016-11-06T10:04:56.461Z,210
2016-11-06T10:05:56.381Z,230
2016-11-06T10:06:55.756Z,250
2016-11-06T10:07:56.039Z,170
2016-11-06T10:08:55.699Z,135
2016-11-06T10:09:56.294Z,95
2016-11-06T10:10:55.670Z,95
2016-11-06T10:11:55.989Z,95
2016-11-06T10:12:55.938Z,85
2016-11-06T10:13:55.622Z,110
2016-11-06T10:14:55.989Z,120
2016-11-06T10:15:56.593Z,100
2016-11-06T10:16:55.964Z,130
2016-11-06T10:17:55.534Z,110
2016-11-06T10:18:55.856Z,110
2016-11-06T10:19:55.501Z,125
2016-11-06T10:20:55.513Z,110
2016-11-06T10:21:55.510Z,105
2016-11-06T10:22:55.470Z,95
2016-11-06T10:23:55.459Z,105
2016-11-06T10:24:55.762Z,115
2016-11-06T10:25:55.415Z,125
2016-11-06T10:26:55.437Z,125
2016-11-06T10:27:55.726Z,130
2016-11-06T10:28:55.366Z,145
2016-11-06T10:29:55.705Z,150
2016-11-06T10:30:56.011Z,145
2016-11-06T10:31:55.649Z,130
2016-11-06T10:32:55.291Z,125
2016-11-06T10:33:55.605Z,125
2016-11-06T10:34:55.264Z,130
2016-11-06T10:35:56.562Z,135
2016-11-06T10:36:55.224Z,135
2016-11-06T10:37:55.554Z,130
2016-11-06T10:38:55.544Z,130
2016-11-06T10:39:55.855Z,130
2016-11-06T10:40:55.537Z,130
2016-11-06T10:41:55.132Z,115
2016-11-06T10:42:55.481Z,110
2016-11-06T10:43:55.817Z,105
2016-11-06T10:44:55.445Z,110
2016-11-06T10:45:55.155Z,115
2016-11-06T10:46:55.743Z,130
2016-11-06T10:47:55.763Z,145
2016-11-06T10:48:55.388Z,145
2016-11-06T10:49:55.040Z,140
2016-11-06T10:50:55.343Z,125
2016-11-06T10:51:54.976Z,115
2016-11-06T10:52:54.976Z,110
2016-11-06T10:53:55.636Z,100
2016-11-06T10:54:55.022Z,100
2016-11-06T10:55:54.924Z,95
2016-11-06T10:56:54.983Z,100
2016-11-06T10:57:55.590Z,95
2016-11-06T10:58:55.210Z,100
2016-11-06T10:59:54.909Z,105
2016-11-06T11:00:54.839Z,105
2016-11-06T11:01:54.900Z,100
2016-11-06T11:02:54.837Z,105
2016-11-06T11:03:55.464Z,95
2016-11-06T11:04:55.106Z,85
2016-11-06T11:05:55.411Z,95
2016-11-06T11:06:54.775Z,90
2016-11-06T11:07:55.050Z,85
2016-11-06T11:08:55.035Z,75
2016-11-06T11:09:55.048Z,65
2016-11-06T11:10:55.672Z,60
2016-11-06T11:11:55.041Z,85
2016-11-06T11:12:54.669Z,110
2016-11-06T11:13:54.979Z,105
2016-11-06T11:14:55.286Z,100
2016-11-06T11:15:55.593Z,95
2016-11-06T11:16:54.925Z,100
2016-11-06T11:17:54.927Z,105
2016-11-06T11:18:55.499Z,100
2016-11-06T11:19:54.840Z,115
2016-11-06T11:20:54.585Z,95
2016-11-06T11:21:55.179Z,80
2016-11-06T11:22:54.879Z,95
2016-11-06T11:23:55.107Z,100
2016-11-06T11:24:54.776Z,100
2016-11-06T11:25:54.762Z,120
2016-11-06T11:26:54.758Z,105
2016-11-06T11:27:54.736Z,80
2016-11-06T11:28:55.164Z,80
2016-11-06T11:29:54.679Z,80
2016-11-06T11:30:54.362Z,85
2016-11-06T11:31:54.962Z,85
2016-11-06T11:32:54.682Z,75
2016-11-06T11:33:54.688Z,85
2016-11-06T11:34:55.020Z,95
2016-11-06T11:35:54.917Z,95
2016-11-06T11:36:54.610Z,100
2016-11-06T11:37:54.586Z,100
2016-11-06T11:38:54.211Z,75
2016-11-06T11:39:54.854Z,55
2016-11-06T11:40:54.222Z,80
2016-11-06T11:41:54.231Z,75
2016-11-06T11:42:54.234Z,70
2016-11-06T11:43:54.133Z,80
2016-11-06T11:44:54.114Z,90
2016-11-06T11:45:54.087Z,85
2016-11-06T11:46:54.076Z,65
2016-11-06T11:47:54.094Z,55
2016-11-06T11:48:54.394Z,65
2016-11-06T11:49:54.032Z,55
2016-11-06T11:50:54.003Z,55
2016-11-06T11:51:54.314Z,55
2016-11-06T11:52:54.606Z,50
2016-11-06T11:53:53.967Z,50
2016-11-06T11:54:54.257Z,70
2016-11-06T11:55:54.869Z,85
2016-11-06T11:56:53.907Z,85
2016-11-06T11:57:53.903Z,95
2016-11-06T11:58:53.883Z,95
2016-11-06T11:59:53.872Z,90
2016-11-06T12:00:53.912Z,80
2016-11-06T12:01:54.151Z,65
2016-11-06T12:02:53.819Z,70
2016-11-06T12:03:53.805Z,85
2016-11-06T12:04:53.829Z,75
2016-11-06T12:05:53.774Z,65
2016-11-06T12:06:54.063Z,55
2016-11-06T12:07:54.051Z,55
2016-11-06T12:08:53.714Z,50
2016-11-06T12:09:54.211Z,45
2016-11-06T12:10:53.689Z,55
2016-11-06T12:11:53.986Z,60
2016-11-06T12:12:53.648Z,60
2016-11-06T12:13:53.957Z,55
2016-11-06T12:14:53.928Z,55
2016-11-06T12:15:53.640Z,50
2016-11-06T12:16:53.910Z,35
2016-11-06T12:17:53.919Z,30
2016-11-06T12:18:53.551Z,25
2016-11-06T12:19:53.541Z,20
2016-11-06T12:20:53.834Z,20
2016-11-06T12:21:53.817Z,20
2016-11-06T12:22:53.799Z,20
2016-11-06T12:23:53.781Z,15
2016-11-06T12:24:53.443Z,15
2016-11-06T12:25:53.438Z,20
2016-11-06T12:26:53.475Z,15
2016-11-06T12:27:53.442Z,20
2016-11-06T12:28:53.417Z,20
2016-11-06T12:29:53.680Z,20
2016-11-06T12:30:53.666Z,15
2016-11-06T12:31:53.421Z,15
2016-11-06T12:32:53.635Z,15
2016-11-06T12:33:53.304Z,15
2016-11-06T12:34:53.280Z,15
2016-11-06T12:35:53.584Z,20
2016-11-06T12:36:53.256Z,20
2016-11-06T12:37:53.235Z,20
2016-11-06T12:38:53.571Z,25
2016-11-06T12:39:53.206Z,20
2016-11-06T12:40:53.503Z,25
2016-11-06T12:41:53.161Z,25
2016-11-06T12:42:53.153Z,30
2016-11-06T12:43:53.472Z,35
2016-11-06T12:44:53.119Z,35
2016-11-06T12:45:53.099Z,30
2016-11-06T12:46:53.396Z,30
2016-11-06T12:47:53.074Z,35
2016-11-06T12:48:53.049Z,45
2016-11-06T12:49:53.038Z,35
2016-11-06T12:50:53.029Z,50
2016-11-06T12:51:53.318Z,55
2016-11-06T12:52:53.301Z,45
2016-11-06T12:53:52.963Z,30
2016-11-06T12:54:52.956Z,25
2016-11-06T12:55:52.933Z,25
2016-11-06T12:56:52.935Z,20
2016-11-06T12:57:53.227Z,25
2016-11-06T12:58:52.881Z,20
2016-11-06T12:59:52.862Z,25
2016-11-06T13:00:53.162Z,25
2016-11-06T13:01:53.146Z,20
2016-11-06T13:02:53.147Z,25
2016-11-06T13:03:52.799Z,20
2016-11-06T13:04:53.117Z,25
2016-11-06T13:05:52.763Z,25
2016-11-06T13:06:53.378Z,25
2016-11-06T13:07:53.040Z,25
2016-11-06T13:08:52.708Z,25
2016-11-06T13:09:52.685Z,25
2016-11-06T13:10:52.680Z,35
2016-11-06T13:11:52.706Z,35
2016-11-06T13:12:52.641Z,35
2016-11-06T13:13:52.938Z,35
2016-11-06T13:14:52.603Z,40
2016-11-06T13:15:52.592Z,45
2016-11-06T13:16:52.885Z,45
2016-11-06T13:17:52.550Z,35
2016-11-06T13:18:53.154Z,30
2016-11-06T13:19:52.549Z,25
2016-11-06T13:20:52.498Z,25
2016-11-06T13:21:52.793Z,20
2016-11-06T13:22:52.484Z,20
2016-11-06T13:23:52.772Z,25
2016-11-06T13:24:52.446Z,25
2016-11-06T13:25:52.426Z,20
2016-11-06T13:26:52.707Z,20
2016-11-06T13:27:52.405Z,20
2016-11-06T13:28:52.701Z,20
2016-11-06T13:29:52.669Z,15
2016-11-06T13:30:52.332Z,20
2016-11-06T13:31:52.311Z,20
2016-11-06T13:32:52.296Z,20
2016-11-06T13:33:52.629Z,25
2016-11-06T13:34:52.571Z,25
2016-11-06T13:35:52.555Z,25
2016-11-06T13:36:52.268Z,40
2016-11-06T13:37:52.837Z,45
2016-11-06T13:38:52.195Z,55
2016-11-06T13:39:52.217Z,55
2016-11-06T13:40:52.153Z,55
2016-11-06T13:41:52.138Z,45
2016-11-06T13:42:52.121Z,55
2016-11-06T13:43:52.101Z,60
2016-11-06T13:44:52.400Z,60
2016-11-06T13:45:52.427Z,55
2016-11-06T13:46:52.370Z,45
2016-11-06T13:47:52.339Z,35
2016-11-06T13:48:52.018Z,30
2016-11-06T13:49:52.633Z,30
2016-11-06T13:50:52.026Z,30
2016-11-06T13:51:52.276Z,30
2016-11-06T13:52:51.948Z,30
2016-11-06T13:53:52.252Z,20
2016-11-06T13:54:51.918Z,20
2016-11-06T13:55:51.903Z,20
2016-11-06T13:56:51.913Z,20
2016-11-06T13:57:51.865Z,25
2016-11-06T13:58:51.846Z,25
2016-11-06T13:59:52.140Z,25
2016-11-06T14:00:52.127Z,25
2016-11-06T14:01:51.797Z,20
2016-11-06T14:02:51.778Z,15
2016-11-06T14:03:52.084Z,15
2016-11-06T14:04:51.779Z,15
2016-11-06T14:05:51.726Z,15
2016-11-06T14:06:51.746Z,15
2016-11-06T14:07:51.698Z,25
2016-11-06T14:08:51.673Z,25
2016-11-06T14:09:51.864Z,25
2016-11-06T14:10:51.648Z,20
2016-11-06T14:11:52.262Z,20
2016-11-06T14:12:52.551Z,20
2016-11-06T14:13:51.600Z,20
2016-11-06T14:14:51.570Z,20
2016-11-06T14:15:51.874Z,15
2016-11-06T14:16:51.544Z,20
2016-11-06T14:17:51.521Z,20
2016-11-06T14:18:51.820Z,25
2016-11-06T14:19:51.489Z,25
2016-11-06T14:20:51.463Z,20
2016-11-06T14:21:51.759Z,20
2016-11-06T14:22:51.434Z,20
2016-11-06T14:23:51.421Z,20